sensor_id;sensor_type;location;lat;lon;timestamp;temperature;humidity
24744;DHT22;12844;52.110;5.548;2023-12-20T00:01:22;18.40;58.90
24744;DHT22;12844;52.110;5.548;2023-12-20T00:03:47;18.30;58.90
24744;DHT22;12844;52.110;5.548;2023-12-20T00:06:13;18.30;58.90
24744;DHT22;12844;52.110;5.548;2023-12-20T00:08:39;18.30;59.50
24744;DHT22;12844;52.110;5.548;2023-12-20T00:11:04;18.30;58.90
24744;DHT22;12844;52.110;5.548;2023-12-20T00:13:30;18.30;58.90
24744;DHT22;12844;52.110;5.548;2023-12-20T02:06:21;17.90;58.60
24744;DHT22;12844;52.110;5.548;2023-12-20T02:08:49;17.90;58.60
24744;DHT22;12844;52.110;5.548;2023-12-20T02:11:15;18.00;58.50
24744;DHT22;12844;52.110;5.548;2023-12-20T02:13:41;17.90;58.30
24744;DHT22;12844;52.110;5.548;2023-12-20T02:16:07;18.00;58.30
24744;DHT22;12844;52.110;5.548;2023-12-20T02:18:33;17.90;58.30
24744;DHT22;12844;52.110;5.548;2023-12-20T02:20:59;17.90;58.30
24744;DHT22;12844;52.110;5.548;2023-12-20T05:24:39;17.50;57.80
24744;DHT22;12844;52.110;5.548;2023-12-20T05:27:05;17.50;57.80
24744;DHT22;12844;52.110;5.548;2023-12-20T05:29:30;17.50;57.90
24744;DHT22;12844;52.110;5.548;2023-12-20T05:31:58;17.50;57.80
24744;DHT22;12844;52.110;5.548;2023-12-20T05:34:24;17.50;57.70
24744;DHT22;12844;52.110;5.548;2023-12-20T05:36:49;17.50;57.80
24744;DHT22;12844;52.110;5.548;2023-12-20T05:39:15;17.50;57.80
24744;DHT22;12844;52.110;5.548;2023-12-20T05:41:40;17.50;57.70
24744;DHT22;12844;52.110;5.548;2023-12-20T08:32:34;18.90;57.30
24744;DHT22;12844;52.110;5.548;2023-12-20T08:35:00;18.90;57.30
24744;DHT22;12844;52.110;5.548;2023-12-20T08:37:26;18.90;57.20
24744;DHT22;12844;52.110;5.548;2023-12-20T08:39:51;18.90;57.20
24744;DHT22;12844;52.110;5.548;2023-12-20T08:42:17;18.90;57.10
24744;DHT22;12844;52.110;5.548;2023-12-20T08:44:42;18.90;57.00
24744;DHT22;12844;52.110;5.548;2023-12-20T08:47:08;18.90;57.00
24744;DHT22;12844;52.110;5.548;2023-12-20T08:49:38;18.90;57.10
24744;DHT22;12844;52.110;5.548;2023-12-20T08:52:04;18.90;57.10
24744;DHT22;12844;52.110;5.548;2023-12-20T09:10:00;18.90;57.10
24744;DHT22;12844;52.110;5.548;2023-12-20T09:12:25;18.90;57.10
24744;DHT22;12844;52.110;5.548;2023-12-20T09:14:52;18.90;57.30
24744;DHT22;12844;52.110;5.548;2023-12-20T09:17:18;18.90;57.20
24744;DHT22;12844;52.110;5.548;2023-12-20T09:19:44;18.90;57.30
24744;DHT22;12844;52.110;5.548;2023-12-20T09:22:11;18.80;57.30
24744;DHT22;12844;52.110;5.548;2023-12-20T10:11:58;18.50;57.40
24744;DHT22;12844;52.110;5.548;2023-12-20T10:14:24;18.50;57.40
24744;DHT22;12844;52.110;5.548;2023-12-20T10:16:49;18.50;57.40
24744;DHT22;12844;52.110;5.548;2023-12-20T10:19:17;18.50;57.40
24744;DHT22;12844;52.110;5.548;2023-12-20T10:21:43;18.50;57.40
24744;DHT22;12844;52.110;5.548;2023-12-20T10:24:17;18.40;57.40
24744;DHT22;12844;52.110;5.548;2023-12-20T10:26:43;18.40;57.40
24744;DHT22;12844;52.110;5.548;2023-12-20T10:29:08;18.40;57.50
24744;DHT22;12844;52.110;5.548;2023-12-20T10:31:35;18.40;57.40
24744;DHT22;12844;52.110;5.548;2023-12-20T11:43:56;18.20;57.00
24744;DHT22;12844;52.110;5.548;2023-12-20T11:46:22;18.20;57.00
24744;DHT22;12844;52.110;5.548;2023-12-20T11:48:48;18.20;57.10
24744;DHT22;12844;52.110;5.548;2023-12-20T11:51:14;18.20;57.00
24744;DHT22;12844;52.110;5.548;2023-12-20T11:53:40;18.20;57.00
24744;DHT22;12844;52.110;5.548;2023-12-20T11:56:07;18.20;57.00
24744;DHT22;12844;52.110;5.548;2023-12-20T11:58:34;18.20;57.00
24744;DHT22;12844;52.110;5.548;2023-12-20T12:00:59;18.20;57.00
24744;DHT22;12844;52.110;5.548;2023-12-20T12:03:25;18.20;56.90
24744;DHT22;12844;52.110;5.548;2023-12-20T12:05:51;18.20;57.60
24744;DHT22;12844;52.110;5.548;2023-12-20T12:08:17;18.20;56.90
24744;DHT22;12844;52.110;5.548;2023-12-20T12:10:44;18.10;57.00
24744;DHT22;12844;52.110;5.548;2023-12-20T12:13:10;18.20;57.00
24744;DHT22;12844;52.110;5.548;2023-12-20T12:15:36;18.10;57.00
24744;DHT22;12844;52.110;5.548;2023-12-20T12:18:03;18.10;57.00
24744;DHT22;12844;52.110;5.548;2023-12-20T12:20:29;18.10;57.00
24744;DHT22;12844;52.110;5.548;2023-12-20T12:23:03;18.10;57.00
24744;DHT22;12844;52.110;5.548;2023-12-20T12:25:30;18.10;57.00
24744;DHT22;12844;52.110;5.548;2023-12-20T12:27:59;18.10;56.90
24744;DHT22;12844;52.110;5.548;2023-12-20T12:30:25;18.10;57.00
24744;DHT22;12844;52.110;5.548;2023-12-20T12:32:52;18.10;57.00
24744;DHT22;12844;52.110;5.548;2023-12-20T12:35:18;18.10;57.00
24744;DHT22;12844;52.110;5.548;2023-12-20T12:37:43;18.10;57.00
24744;DHT22;12844;52.110;5.548;2023-12-20T12:40:14;18.10;57.00
24744;DHT22;12844;52.110;5.548;2023-12-20T12:42:42;18.10;57.00
24744;DHT22;12844;52.110;5.548;2023-12-20T12:45:09;18.00;57.00
24744;DHT22;12844;52.110;5.548;2023-12-20T12:47:35;18.00;56.90
24744;DHT22;12844;52.110;5.548;2023-12-20T12:50:01;18.10;56.90
24744;DHT22;12844;52.110;5.548;2023-12-20T12:52:26;18.10;56.80
24744;DHT22;12844;52.110;5.548;2023-12-20T12:54:52;18.10;56.80
24744;DHT22;12844;52.110;5.548;2023-12-20T12:57:18;18.00;56.80
24744;DHT22;12844;52.110;5.548;2023-12-20T12:59:44;18.10;56.80
24744;DHT22;12844;52.110;5.548;2023-12-20T13:02:12;18.10;56.80
24744;DHT22;12844;52.110;5.548;2023-12-20T13:04:39;18.00;56.70
24744;DHT22;12844;52.110;5.548;2023-12-20T13:07:05;18.00;56.80
24744;DHT22;12844;52.110;5.548;2023-12-20T13:09:31;18.00;56.80
24744;DHT22;12844;52.110;5.548;2023-12-20T13:11:57;18.00;56.80
24744;DHT22;12844;52.110;5.548;2023-12-20T13:14:22;18.00;56.70
24744;DHT22;12844;52.110;5.548;2023-12-20T13:16:48;18.00;56.70
24744;DHT22;12844;52.110;5.548;2023-12-20T13:19:13;18.00;56.80
24744;DHT22;12844;52.110;5.548;2023-12-20T13:21:39;18.00;56.80
24744;DHT22;12844;52.110;5.548;2023-12-20T13:24:05;18.00;56.70
24744;DHT22;12844;52.110;5.548;2023-12-20T13:26:31;18.00;56.90
24744;DHT22;12844;52.110;5.548;2023-12-20T13:28:56;18.00;57.00
24744;DHT22;12844;52.110;5.548;2023-12-20T13:31:22;18.00;57.20
24744;DHT22;12844;52.110;5.548;2023-12-20T13:33:47;18.20;57.30
24744;DHT22;12844;52.110;5.548;2023-12-20T13:36:13;18.20;57.20
24744;DHT22;12844;52.110;5.548;2023-12-20T13:38:39;18.30;57.30
24744;DHT22;12844;52.110;5.548;2023-12-20T13:41:05;18.50;57.30
24744;DHT22;12844;52.110;5.548;2023-12-20T13:43:31;18.50;57.30
24744;DHT22;12844;52.110;5.548;2023-12-20T13:45:58;18.70;57.30
24744;DHT22;12844;52.110;5.548;2023-12-20T13:48:24;18.80;57.10
24744;DHT22;12844;52.110;5.548;2023-12-20T13:50:49;18.90;57.10
24744;DHT22;12844;52.110;5.548;2023-12-20T13:53:15;18.90;57.10
24744;DHT22;12844;52.110;5.548;2023-12-20T13:55:41;19.00;57.00
24744;DHT22;12844;52.110;5.548;2023-12-20T13:58:07;19.10;56.90
24744;DHT22;12844;52.110;5.548;2023-12-20T14:00:32;19.20;56.70
24744;DHT22;12844;52.110;5.548;2023-12-20T14:02:58;19.20;57.20
24744;DHT22;12844;52.110;5.548;2023-12-20T14:05:24;19.20;56.50
24744;DHT22;12844;52.110;5.548;2023-12-20T14:07:49;19.20;56.50
24744;DHT22;12844;52.110;5.548;2023-12-20T14:10:16;19.20;56.50
24744;DHT22;12844;52.110;5.548;2023-12-20T14:12:41;19.20;56.40
24744;DHT22;12844;52.110;5.548;2023-12-20T14:15:07;19.20;56.40
24744;DHT22;12844;52.110;5.548;2023-12-20T14:17:39;19.20;56.40
24744;DHT22;12844;52.110;5.548;2023-12-20T14:20:08;19.20;56.40
24744;DHT22;12844;52.110;5.548;2023-12-20T14:22:34;19.20;56.40
24744;DHT22;12844;52.110;5.548;2023-12-20T14:25:00;19.20;56.40
24744;DHT22;12844;52.110;5.548;2023-12-20T14:27:26;19.10;56.40
24744;DHT22;12844;52.110;5.548;2023-12-20T14:29:54;19.10;56.40
24744;DHT22;12844;52.110;5.548;2023-12-20T14:32:19;19.10;56.40
24744;DHT22;12844;52.110;5.548;2023-12-20T14:34:46;19.10;56.40
24744;DHT22;12844;52.110;5.548;2023-12-20T14:37:12;19.10;56.40
24744;DHT22;12844;52.110;5.548;2023-12-20T14:39:37;19.10;57.20
24744;DHT22;12844;52.110;5.548;2023-12-20T14:42:10;19.10;57.20
24744;DHT22;12844;52.110;5.548;2023-12-20T14:44:42;19.10;56.50
24744;DHT22;12844;52.110;5.548;2023-12-20T14:47:08;19.10;56.50
24744;DHT22;12844;52.110;5.548;2023-12-20T14:49:34;19.10;56.60
24744;DHT22;12844;52.110;5.548;2023-12-20T14:51:59;19.10;57.00
24744;DHT22;12844;52.110;5.548;2023-12-20T14:54:25;19.10;57.20
24744;DHT22;12844;52.110;5.548;2023-12-20T14:56:51;19.10;57.20
24744;DHT22;12844;52.110;5.548;2023-12-20T14:59:17;19.20;57.20
24744;DHT22;12844;52.110;5.548;2023-12-20T15:01:43;19.30;57.10
24744;DHT22;12844;52.110;5.548;2023-12-20T15:04:09;19.30;57.10
24744;DHT22;12844;52.110;5.548;2023-12-20T15:06:35;19.40;57.10
24744;DHT22;12844;52.110;5.548;2023-12-20T15:09:01;19.40;57.00
24744;DHT22;12844;52.110;5.548;2023-12-20T15:11:28;19.50;57.00
24744;DHT22;12844;52.110;5.548;2023-12-20T15:13:54;19.50;56.90
24744;DHT22;12844;52.110;5.548;2023-12-20T15:16:23;19.60;56.90
24744;DHT22;12844;52.110;5.548;2023-12-20T15:18:49;19.60;56.90
24744;DHT22;12844;52.110;5.548;2023-12-20T15:21:16;19.60;56.80
24744;DHT22;12844;52.110;5.548;2023-12-20T15:23:41;19.60;56.70
24744;DHT22;12844;52.110;5.548;2023-12-20T15:26:21;19.60;56.60
24744;DHT22;12844;52.110;5.548;2023-12-20T15:28:47;19.60;56.70
24744;DHT22;12844;52.110;5.548;2023-12-20T15:31:12;19.60;56.60
24744;DHT22;12844;52.110;5.548;2023-12-20T15:33:39;19.60;56.70
24744;DHT22;12844;52.110;5.548;2023-12-20T15:36:06;19.60;56.60
24744;DHT22;12844;52.110;5.548;2023-12-20T15:38:31;19.60;56.70
24744;DHT22;12844;52.110;5.548;2023-12-20T15:40:57;19.60;56.80
24744;DHT22;12844;52.110;5.548;2023-12-20T15:43:22;19.60;56.80
24744;DHT22;12844;52.110;5.548;2023-12-20T15:45:48;19.60;56.90
24744;DHT22;12844;52.110;5.548;2023-12-20T15:48:14;19.50;56.80
24744;DHT22;12844;52.110;5.548;2023-12-20T15:50:44;19.50;56.80
24744;DHT22;12844;52.110;5.548;2023-12-20T15:53:10;19.40;56.50
24744;DHT22;12844;52.110;5.548;2023-12-20T15:55:35;19.40;56.60
24744;DHT22;12844;52.110;5.548;2023-12-20T15:58:01;19.40;56.40
24744;DHT22;12844;52.110;5.548;2023-12-20T16:00:26;19.40;56.40
24744;DHT22;12844;52.110;5.548;2023-12-20T16:02:52;19.40;56.40
24744;DHT22;12844;52.110;5.548;2023-12-20T16:05:18;19.40;56.50
24744;DHT22;12844;52.110;5.548;2023-12-20T16:07:44;19.30;57.20
24744;DHT22;12844;52.110;5.548;2023-12-20T16:10:10;19.30;56.50
24744;DHT22;12844;52.110;5.548;2023-12-20T16:12:36;19.20;56.50
24744;DHT22;12844;52.110;5.548;2023-12-20T16:15:01;19.30;56.60
24744;DHT22;12844;52.110;5.548;2023-12-20T16:17:28;19.30;56.70
24744;DHT22;12844;52.110;5.548;2023-12-20T16:19:54;19.20;56.60
24744;DHT22;12844;52.110;5.548;2023-12-20T16:22:19;19.20;56.60
24744;DHT22;12844;52.110;5.548;2023-12-20T16:24:45;19.20;56.60
24744;DHT22;12844;52.110;5.548;2023-12-20T16:27:11;19.30;56.60
24744;DHT22;12844;52.110;5.548;2023-12-20T16:29:36;19.20;56.50
24744;DHT22;12844;52.110;5.548;2023-12-20T16:32:02;19.20;56.50
24744;DHT22;12844;52.110;5.548;2023-12-20T16:34:27;19.20;56.60
24744;DHT22;12844;52.110;5.548;2023-12-20T16:36:54;19.10;56.50
24744;DHT22;12844;52.110;5.548;2023-12-20T16:39:22;19.10;57.00
24744;DHT22;12844;52.110;5.548;2023-12-20T16:41:48;19.10;56.40
24744;DHT22;12844;52.110;5.548;2023-12-20T16:44:14;19.10;56.40
24744;DHT22;12844;52.110;5.548;2023-12-20T16:46:39;19.10;56.50
24744;DHT22;12844;52.110;5.548;2023-12-20T16:49:07;19.10;56.40
24744;DHT22;12844;52.110;5.548;2023-12-20T16:51:32;19.10;56.40
24744;DHT22;12844;52.110;5.548;2023-12-20T16:53:59;19.10;56.50
24744;DHT22;12844;52.110;5.548;2023-12-20T16:56:25;19.10;56.40
24744;DHT22;12844;52.110;5.548;2023-12-20T16:58:50;19.10;56.50
24744;DHT22;12844;52.110;5.548;2023-12-20T17:01:16;19.00;56.50
24744;DHT22;12844;52.110;5.548;2023-12-20T17:03:42;19.00;56.60
24744;DHT22;12844;52.110;5.548;2023-12-20T17:06:08;19.00;56.60
24744;DHT22;12844;52.110;5.548;2023-12-20T17:08:35;19.00;56.60
24744;DHT22;12844;52.110;5.548;2023-12-20T17:11:00;19.00;56.60
24744;DHT22;12844;52.110;5.548;2023-12-20T17:13:26;19.00;56.60
24744;DHT22;12844;52.110;5.548;2023-12-20T17:15:53;19.00;56.70
24744;DHT22;12844;52.110;5.548;2023-12-20T17:18:18;18.90;56.70
24744;DHT22;12844;52.110;5.548;2023-12-20T17:20:44;19.00;56.60
24744;DHT22;12844;52.110;5.548;2023-12-20T17:23:09;18.90;56.70
24744;DHT22;12844;52.110;5.548;2023-12-20T17:25:35;18.90;56.70
24744;DHT22;12844;52.110;5.548;2023-12-20T17:28:05;18.90;56.70
24744;DHT22;12844;52.110;5.548;2023-12-20T17:30:31;18.90;56.80
24744;DHT22;12844;52.110;5.548;2023-12-20T17:32:56;18.90;56.80
24744;DHT22;12844;52.110;5.548;2023-12-20T17:35:22;18.90;57.40
24744;DHT22;12844;52.110;5.548;2023-12-20T17:37:47;18.80;57.50
24744;DHT22;12844;52.110;5.548;2023-12-20T17:40:13;18.90;57.70
24744;DHT22;12844;52.110;5.548;2023-12-20T17:42:40;19.00;57.80
24744;DHT22;12844;52.110;5.548;2023-12-20T17:45:05;19.00;57.70
24744;DHT22;12844;52.110;5.548;2023-12-20T17:47:31;19.10;57.90
24744;DHT22;12844;52.110;5.548;2023-12-20T17:49:57;19.10;58.00
24744;DHT22;12844;52.110;5.548;2023-12-20T17:52:22;19.30;58.00
24744;DHT22;12844;52.110;5.548;2023-12-20T17:54:48;19.40;57.90
24744;DHT22;12844;52.110;5.548;2023-12-20T17:57:13;19.40;58.00
24744;DHT22;12844;52.110;5.548;2023-12-20T17:59:39;19.60;57.90
24744;DHT22;12844;52.110;5.548;2023-12-20T18:02:05;19.60;57.90
24744;DHT22;12844;52.110;5.548;2023-12-20T18:04:31;19.70;58.00
24744;DHT22;12844;52.110;5.548;2023-12-20T18:06:57;19.70;57.70
24744;DHT22;12844;52.110;5.548;2023-12-20T18:09:22;19.80;57.60
24744;DHT22;12844;52.110;5.548;2023-12-20T18:11:48;19.90;57.40
24744;DHT22;12844;52.110;5.548;2023-12-20T18:14:14;19.90;57.20
24744;DHT22;12844;52.110;5.548;2023-12-20T18:16:40;19.90;57.20
24744;DHT22;12844;52.110;5.548;2023-12-20T18:19:06;19.90;57.20
24744;DHT22;12844;52.110;5.548;2023-12-20T18:21:31;19.90;57.20
24744;DHT22;12844;52.110;5.548;2023-12-20T18:23:57;19.90;57.30
24744;DHT22;12844;52.110;5.548;2023-12-20T18:26:23;19.90;57.20
24744;DHT22;12844;52.110;5.548;2023-12-20T18:28:48;19.90;57.10
24744;DHT22;12844;52.110;5.548;2023-12-20T18:31:14;19.90;57.00
24744;DHT22;12844;52.110;5.548;2023-12-20T18:33:40;19.80;56.70
24744;DHT22;12844;52.110;5.548;2023-12-20T18:36:06;19.80;56.80
24744;DHT22;12844;52.110;5.548;2023-12-20T18:38:32;19.80;56.90
24744;DHT22;12844;52.110;5.548;2023-12-20T18:40:59;19.80;56.70
24744;DHT22;12844;52.110;5.548;2023-12-20T18:43:25;19.70;56.70
24744;DHT22;12844;52.110;5.548;2023-12-20T18:45:54;19.70;56.60
24744;DHT22;12844;52.110;5.548;2023-12-20T18:48:20;19.70;56.80
24744;DHT22;12844;52.110;5.548;2023-12-20T18:50:46;19.70;56.60
24744;DHT22;12844;52.110;5.548;2023-12-20T18:53:12;19.70;56.30
24744;DHT22;12844;52.110;5.548;2023-12-20T18:55:38;19.60;56.40
24744;DHT22;12844;52.110;5.548;2023-12-20T18:58:03;19.60;56.40
24744;DHT22;12844;52.110;5.548;2023-12-20T19:00:29;19.60;56.50
24744;DHT22;12844;52.110;5.548;2023-12-20T19:02:54;19.50;56.60
24744;DHT22;12844;52.110;5.548;2023-12-20T19:05:21;19.60;56.60
24744;DHT22;12844;52.110;5.548;2023-12-20T19:07:47;19.50;56.60
24744;DHT22;12844;52.110;5.548;2023-12-20T19:10:13;19.50;56.60
24744;DHT22;12844;52.110;5.548;2023-12-20T19:12:39;19.50;56.50
24744;DHT22;12844;52.110;5.548;2023-12-20T19:15:05;19.50;56.60
24744;DHT22;12844;52.110;5.548;2023-12-20T19:17:31;19.40;56.40
24744;DHT22;12844;52.110;5.548;2023-12-20T19:19:56;19.40;56.60
24744;DHT22;12844;52.110;5.548;2023-12-20T19:22:22;19.40;56.40
24744;DHT22;12844;52.110;5.548;2023-12-20T19:24:49;19.40;56.50
24744;DHT22;12844;52.110;5.548;2023-12-20T19:27:16;19.40;56.40
24744;DHT22;12844;52.110;5.548;2023-12-20T19:29:41;19.30;56.40
24744;DHT22;12844;52.110;5.548;2023-12-20T19:32:07;19.30;56.40
24744;DHT22;12844;52.110;5.548;2023-12-20T19:34:32;19.30;56.40
24744;DHT22;12844;52.110;5.548;2023-12-20T19:36:58;19.30;56.30
24744;DHT22;12844;52.110;5.548;2023-12-20T19:39:23;19.20;56.30
24744;DHT22;12844;52.110;5.548;2023-12-20T19:41:49;19.20;56.40
24744;DHT22;12844;52.110;5.548;2023-12-20T19:44:15;19.20;56.30
24744;DHT22;12844;52.110;5.548;2023-12-20T19:46:42;19.20;56.30
24744;DHT22;12844;52.110;5.548;2023-12-20T19:49:09;19.20;56.40
24744;DHT22;12844;52.110;5.548;2023-12-20T19:51:34;19.10;56.30
24744;DHT22;12844;52.110;5.548;2023-12-20T19:54:01;19.10;56.30
24744;DHT22;12844;52.110;5.548;2023-12-20T19:56:26;19.10;56.20
24744;DHT22;12844;52.110;5.548;2023-12-20T19:58:52;19.10;56.20
24744;DHT22;12844;52.110;5.548;2023-12-20T20:01:18;19.10;56.20
24744;DHT22;12844;52.110;5.548;2023-12-20T20:03:43;19.10;56.20
24744;DHT22;12844;52.110;5.548;2023-12-20T20:06:09;19.00;56.30
24744;DHT22;12844;52.110;5.548;2023-12-20T20:08:35;19.00;56.20
24744;DHT22;12844;52.110;5.548;2023-12-20T20:11:00;19.00;56.20
24744;DHT22;12844;52.110;5.548;2023-12-20T20:13:26;19.10;56.20
24744;DHT22;12844;52.110;5.548;2023-12-20T20:15:51;19.00;56.10
24744;DHT22;12844;52.110;5.548;2023-12-20T20:18:17;19.00;56.10
24744;DHT22;12844;52.110;5.548;2023-12-20T20:20:45;19.00;56.10
24744;DHT22;12844;52.110;5.548;2023-12-20T20:23:10;19.00;56.10
24744;DHT22;12844;52.110;5.548;2023-12-20T20:25:36;19.00;56.20
24744;DHT22;12844;52.110;5.548;2023-12-20T20:28:02;19.00;56.10
24744;DHT22;12844;52.110;5.548;2023-12-20T20:30:27;19.00;56.20
24744;DHT22;12844;52.110;5.548;2023-12-20T20:32:53;19.00;56.10
24744;DHT22;12844;52.110;5.548;2023-12-20T20:35:19;18.90;56.00
24744;DHT22;12844;52.110;5.548;2023-12-20T20:37:46;18.90;56.00
24744;DHT22;12844;52.110;5.548;2023-12-20T20:40:11;18.90;56.10
24744;DHT22;12844;52.110;5.548;2023-12-20T20:42:39;18.90;56.10
24744;DHT22;12844;52.110;5.548;2023-12-20T20:45:05;18.90;56.10
24744;DHT22;12844;52.110;5.548;2023-12-20T20:47:30;18.80;56.10
24744;DHT22;12844;52.110;5.548;2023-12-20T20:49:56;18.80;56.10
24744;DHT22;12844;52.110;5.548;2023-12-20T20:52:22;18.80;56.10
24744;DHT22;12844;52.110;5.548;2023-12-20T20:54:47;18.80;56.10
24744;DHT22;12844;52.110;5.548;2023-12-20T20:57:13;18.90;56.20
24744;DHT22;12844;52.110;5.548;2023-12-20T20:59:38;18.80;56.10
24744;DHT22;12844;52.110;5.548;2023-12-20T21:02:07;18.90;56.00
24744;DHT22;12844;52.110;5.548;2023-12-20T21:04:33;18.80;56.00
24744;DHT22;12844;52.110;5.548;2023-12-20T21:06:58;18.80;55.90
24744;DHT22;12844;52.110;5.548;2023-12-20T21:09:24;18.80;55.90
24744;DHT22;12844;52.110;5.548;2023-12-20T21:11:50;18.80;55.90
24744;DHT22;12844;52.110;5.548;2023-12-20T21:14:15;18.80;55.90
24744;DHT22;12844;52.110;5.548;2023-12-20T21:16:41;18.80;55.90
24744;DHT22;12844;52.110;5.548;2023-12-20T21:19:07;18.80;55.90
24744;DHT22;12844;52.110;5.548;2023-12-20T21:21:33;18.80;55.90
24744;DHT22;12844;52.110;5.548;2023-12-20T21:23:58;18.80;55.80
24744;DHT22;12844;52.110;5.548;2023-12-20T21:26:24;18.80;55.90
24744;DHT22;12844;52.110;5.548;2023-12-20T21:28:49;18.80;56.00
24744;DHT22;12844;52.110;5.548;2023-12-20T21:31:15;18.70;56.00
24744;DHT22;12844;52.110;5.548;2023-12-20T21:33:41;18.70;56.00
24744;DHT22;12844;52.110;5.548;2023-12-20T21:36:07;18.70;56.00
24744;DHT22;12844;52.110;5.548;2023-12-20T21:38:33;18.70;56.00
24744;DHT22;12844;52.110;5.548;2023-12-20T21:40:58;18.70;56.10
24744;DHT22;12844;52.110;5.548;2023-12-20T21:43:24;18.70;56.10
24744;DHT22;12844;52.110;5.548;2023-12-20T21:45:50;18.70;56.10
24744;DHT22;12844;52.110;5.548;2023-12-20T21:48:15;18.70;56.10
24744;DHT22;12844;52.110;5.548;2023-12-20T21:50:41;18.70;56.10
24744;DHT22;12844;52.110;5.548;2023-12-20T21:53:06;18.60;56.00
24744;DHT22;12844;52.110;5.548;2023-12-20T21:55:36;18.60;56.10
24744;DHT22;12844;52.110;5.548;2023-12-20T21:58:02;18.60;56.20
24744;DHT22;12844;52.110;5.548;2023-12-20T22:00:27;18.60;56.20
24744;DHT22;12844;52.110;5.548;2023-12-20T22:02:53;18.50;56.10
24744;DHT22;12844;52.110;5.548;2023-12-20T22:05:18;18.50;56.20
24744;DHT22;12844;52.110;5.548;2023-12-20T22:07:44;18.50;56.20
24744;DHT22;12844;52.110;5.548;2023-12-20T22:10:10;18.50;56.20
24744;DHT22;12844;52.110;5.548;2023-12-20T22:12:35;18.50;56.20
24744;DHT22;12844;52.110;5.548;2023-12-20T22:15:02;18.40;56.30
24744;DHT22;12844;52.110;5.548;2023-12-20T22:17:28;18.40;56.30
24744;DHT22;12844;52.110;5.548;2023-12-20T22:19:53;18.40;56.30
24744;DHT22;12844;52.110;5.548;2023-12-20T22:22:19;18.40;56.40
24744;DHT22;12844;52.110;5.548;2023-12-20T22:24:45;18.40;56.60
24744;DHT22;12844;52.110;5.548;2023-12-20T22:27:11;18.50;56.80
24744;DHT22;12844;52.110;5.548;2023-12-20T22:29:37;18.60;56.90
24744;DHT22;12844;52.110;5.548;2023-12-20T22:32:02;18.70;56.90
24744;DHT22;12844;52.110;5.548;2023-12-20T22:34:28;18.80;57.00
24744;DHT22;12844;52.110;5.548;2023-12-20T22:36:54;18.90;56.90
24744;DHT22;12844;52.110;5.548;2023-12-20T22:39:19;19.10;56.90
24744;DHT22;12844;52.110;5.548;2023-12-20T22:41:45;19.20;56.90
24744;DHT22;12844;52.110;5.548;2023-12-20T22:44:10;19.30;56.90
24744;DHT22;12844;52.110;5.548;2023-12-20T22:46:36;19.40;56.80
24744;DHT22;12844;52.110;5.548;2023-12-20T22:49:01;19.50;56.90
24744;DHT22;12844;52.110;5.548;2023-12-20T22:51:27;19.70;56.80
24744;DHT22;12844;52.110;5.548;2023-12-20T22:53:54;19.70;56.60
24744;DHT22;12844;52.110;5.548;2023-12-20T22:56:22;19.80;56.50
24744;DHT22;12844;52.110;5.548;2023-12-20T22:58:47;19.90;56.40
24744;DHT22;12844;52.110;5.548;2023-12-20T23:01:13;19.90;56.40
24744;DHT22;12844;52.110;5.548;2023-12-20T23:03:38;19.90;56.20
24744;DHT22;12844;52.110;5.548;2023-12-20T23:06:04;19.90;56.30
24744;DHT22;12844;52.110;5.548;2023-12-20T23:08:30;19.90;56.30
24744;DHT22;12844;52.110;5.548;2023-12-20T23:10:57;19.90;56.20
24744;DHT22;12844;52.110;5.548;2023-12-20T23:13:22;19.90;56.10
24744;DHT22;12844;52.110;5.548;2023-12-20T23:15:48;19.90;56.10
24744;DHT22;12844;52.110;5.548;2023-12-20T23:18:13;19.90;56.10
24744;DHT22;12844;52.110;5.548;2023-12-20T23:20:39;19.80;56.00
24744;DHT22;12844;52.110;5.548;2023-12-20T23:23:05;19.80;56.10
24744;DHT22;12844;52.110;5.548;2023-12-20T23:25:31;19.80;56.10
24744;DHT22;12844;52.110;5.548;2023-12-20T23:27:58;19.80;56.30
24744;DHT22;12844;52.110;5.548;2023-12-20T23:30:24;19.80;56.10
24744;DHT22;12844;52.110;5.548;2023-12-20T23:32:49;19.70;56.00
24744;DHT22;12844;52.110;5.548;2023-12-20T23:35:15;19.70;56.00
24744;DHT22;12844;52.110;5.548;2023-12-20T23:37:40;19.70;56.00
24744;DHT22;12844;52.110;5.548;2023-12-20T23:40:07;19.60;56.00
24744;DHT22;12844;52.110;5.548;2023-12-20T23:42:33;19.60;55.90
24744;DHT22;12844;52.110;5.548;2023-12-20T23:44:59;19.60;55.90
24744;DHT22;12844;52.110;5.548;2023-12-20T23:47:25;19.60;56.00
24744;DHT22;12844;52.110;5.548;2023-12-20T23:49:50;19.60;56.00
24744;DHT22;12844;52.110;5.548;2023-12-20T23:52:16;19.50;56.00
24744;DHT22;12844;52.110;5.548;2023-12-20T23:54:41;19.50;55.90
24744;DHT22;12844;52.110;5.548;2023-12-20T23:57:07;19.50;56.00
24744;DHT22;12844;52.110;5.548;2023-12-20T23:59:32;19.40;56.00
